Terminal Aerodrome Forecast
Issued by NWS

Home | Current Version | Previous Version | Text Only | Print | Product List | Glossary On
Versions: 1 2 3 4 5 6 7 8 9 10 11 12 13 14 15 16 17 18 19
000
FTUS45 KABQ 240500
TAFSAF
TAF
KSAF 240535Z 2406/2506 36005KT P6SM SKC
     FM241300 36011KT P6SM SKC
     FM241900 28010KT P6SM SKC
     FM250200 36005KT P6SM SKC=

USA.gov is the U.S. government's official web portal to all federal, state and local government web resources and services.